createdAt,value
2018-11-29T00:02:25.900Z,23.40
2018-11-29T00:04:54.753Z,22.77
2018-11-29T00:07:23.599Z,22.87
2018-11-29T00:09:52.429Z,22.63
2018-11-29T00:12:21.255Z,22.23
2018-11-29T00:14:50.106Z,23.33
2018-11-29T00:17:18.949Z,23.20
2018-11-29T00:19:47.786Z,23.37
2018-11-29T00:22:16.616Z,22.40
2018-11-29T00:24:45.476Z,21.80
2018-11-29T00:27:15.045Z,22.40
2018-11-29T00:29:43.889Z,23.23
2018-11-29T00:32:12.731Z,23.13
2018-11-29T00:34:41.566Z,22.27
2018-11-29T00:37:10.412Z,22.93
2018-11-29T00:39:39.259Z,23.53
2018-11-29T00:42:08.107Z,22.37
2018-11-29T00:44:37.685Z,22.97
2018-11-29T00:47:06.555Z,22.37
2018-11-29T00:49:35.396Z,22.07
2018-11-29T00:52:04.243Z,22.97
2018-11-29T00:54:33.079Z,23.83
2018-11-29T00:57:01.936Z,23.33
2018-11-29T00:59:30.762Z,22.20
2018-11-29T01:01:59.597Z,20.87
2018-11-29T01:04:28.435Z,21.13
2018-11-29T01:06:58.011Z,21.90
2018-11-29T01:09:26.873Z,24.02
2018-11-29T01:11:55.699Z,22.57
2018-11-29T01:14:24.539Z,22.60
2018-11-29T01:16:53.388Z,22.30
2018-11-29T01:19:22.281Z,20.93
2018-11-29T01:21:51.098Z,21.00
2018-11-29T01:24:19.939Z,22.13
2018-11-29T01:26:48.782Z,22.87
2018-11-29T01:29:17.620Z,22.13
2018-11-29T01:31:46.461Z,21.33
2018-11-29T01:34:15.311Z,22.90
2018-11-29T01:36:44.163Z,23.83
2018-11-29T01:39:13.021Z,24.70
2018-11-29T01:41:41.864Z,23.23
2018-11-29T01:44:10.718Z,21.27
2018-11-29T01:46:39.549Z,23.17
2018-11-29T01:49:08.419Z,23.33
2018-11-29T01:51:37.256Z,25.30
2018-11-29T01:54:06.690Z,24.03
2018-11-29T01:56:35.535Z,22.93
2018-11-29T01:59:05.110Z,23.60
2018-11-29T02:01:33.960Z,23.47
2018-11-29T02:04:02.827Z,25.02
2018-11-29T02:06:32.393Z,23.03
2018-11-29T02:09:01.232Z,22.70
2018-11-29T02:11:30.810Z,23.77
2018-11-29T02:14:00.400Z,24.00
2018-11-29T02:16:29.227Z,23.90
2018-11-29T02:18:58.808Z,24.73
2018-11-29T02:21:27.656Z,24.53
2018-11-29T02:23:56.495Z,25.95
2018-11-29T02:26:25.345Z,24.70
2018-11-29T02:28:54.182Z,25.33
2018-11-29T02:31:23.031Z,23.37
2018-11-29T02:33:51.865Z,26.67
2018-11-29T02:36:21.460Z,26.50
2018-11-29T02:38:50.282Z,23.70
2018-11-29T02:41:19.118Z,23.43
2018-11-29T02:43:47.956Z,22.17
2018-11-29T02:46:16.801Z,24.33
2018-11-29T02:48:45.639Z,24.73
2018-11-29T02:51:14.487Z,23.57
2018-11-29T02:53:43.369Z,24.53
2018-11-29T02:56:12.179Z,26.52
2018-11-29T02:58:41.029Z,23.27
2018-11-29T03:01:09.877Z,25.85
2018-11-29T03:03:38.721Z,25.07
2018-11-29T03:06:07.555Z,24.90
2018-11-29T03:08:36.395Z,25.07
2018-11-29T03:11:05.239Z,24.53
2018-11-29T03:13:34.090Z,23.93
2018-11-29T03:16:02.939Z,23.73
2018-11-29T03:18:31.803Z,23.80
2018-11-29T03:21:00.645Z,23.17
2018-11-29T03:23:29.501Z,23.50
2018-11-29T03:25:58.329Z,25.00
2018-11-29T03:28:27.193Z,23.23
2018-11-29T03:30:56.031Z,22.70
2018-11-29T03:33:24.881Z,23.97
2018-11-29T03:35:53.714Z,23.50
2018-11-29T03:38:23.294Z,24.07
2018-11-29T03:40:52.143Z,23.90
2018-11-29T03:43:20.992Z,23.77
2018-11-29T03:45:50.571Z,24.67
2018-11-29T03:48:19.430Z,23.20
2018-11-29T03:50:48.267Z,23.77
2018-11-29T03:53:17.129Z,23.03
2018-11-29T03:55:45.966Z,24.98
2018-11-29T03:58:14.798Z,23.30
2018-11-29T04:00:43.634Z,23.60
2018-11-29T04:03:13.214Z,24.40
2018-11-29T04:05:42.091Z,23.83
2018-11-29T04:08:10.920Z,25.48
2018-11-29T04:10:39.761Z,23.37
2018-11-29T04:13:08.599Z,23.43
2018-11-29T04:15:37.460Z,21.47
2018-11-29T04:18:06.319Z,22.80
2018-11-29T04:20:35.173Z,23.30
2018-11-29T04:23:04.021Z,23.07
2018-11-29T04:25:32.871Z,22.97
2018-11-29T04:28:01.715Z,23.97
2018-11-29T04:30:30.575Z,25.23
2018-11-29T04:32:59.419Z,26.73
2018-11-29T04:35:28.258Z,24.10
2018-11-29T04:37:57.090Z,24.13
2018-11-29T04:40:26.672Z,22.83
2018-11-29T04:42:55.528Z,22.60
2018-11-29T04:45:24.366Z,23.90
2018-11-29T04:47:53.212Z,22.40
2018-11-29T04:50:22.056Z,23.43
2018-11-29T04:52:50.891Z,24.20
2018-11-29T04:55:19.725Z,24.57
2018-11-29T04:57:49.299Z,23.70
2018-11-29T05:00:18.131Z,23.40
2018-11-29T05:02:46.991Z,23.60
2018-11-29T05:05:15.813Z,23.63
2018-11-29T05:07:45.434Z,23.80
2018-11-29T05:10:14.270Z,22.97
2018-11-29T05:12:43.118Z,23.10
2018-11-29T05:15:11.956Z,23.83
2018-11-29T05:17:40.803Z,22.67
2018-11-29T05:20:09.669Z,25.48
2018-11-29T05:22:39.072Z,24.73
2018-11-29T05:25:07.916Z,23.43
2018-11-29T05:27:36.760Z,23.30
2018-11-29T05:30:05.605Z,24.27
2018-11-29T05:32:34.478Z,24.43
2018-11-29T05:35:03.322Z,24.43
2018-11-29T05:37:32.179Z,23.57
2018-11-29T05:40:01.800Z,24.63
2018-11-29T05:42:30.601Z,23.93
2018-11-29T05:44:59.446Z,23.87
2018-11-29T05:47:28.288Z,24.13
2018-11-29T05:49:57.122Z,23.83
2018-11-29T05:52:25.966Z,23.43
2018-11-29T05:54:54.818Z,23.77
2018-11-29T05:57:23.651Z,23.57
2018-11-29T05:59:52.485Z,22.93
2018-11-29T06:02:21.328Z,24.50
2018-11-29T06:04:50.170Z,24.47
2018-11-29T06:07:19.030Z,23.70
2018-11-29T06:09:47.864Z,26.50
2018-11-29T06:12:17.450Z,24.80
2018-11-29T06:14:47.032Z,23.33
2018-11-29T06:17:15.866Z,23.33
2018-11-29T06:19:45.442Z,24.73
2018-11-29T06:22:15.018Z,24.60
2018-11-29T06:24:43.873Z,23.77
2018-11-29T06:27:12.779Z,24.20
2018-11-29T06:29:41.617Z,23.07
2018-11-29T06:32:10.462Z,24.43
2018-11-29T06:34:39.314Z,24.43
2018-11-29T06:37:08.146Z,24.67
2018-11-29T06:39:36.980Z,23.67
2018-11-29T06:42:05.839Z,24.77
2018-11-29T06:44:34.696Z,24.60
2018-11-29T06:47:03.542Z,23.97
2018-11-29T06:49:34.175Z,23.97
2018-11-29T06:52:03.763Z,25.03
2018-11-29T06:54:32.597Z,23.07
2018-11-29T06:57:02.190Z,26.37
2018-11-29T06:59:31.044Z,25.87
2018-11-29T07:01:59.889Z,26.20
2018-11-29T07:04:28.748Z,26.13
2018-11-29T07:06:57.595Z,25.53
2018-11-29T07:09:26.436Z,26.90
2018-11-29T07:11:55.275Z,25.43
2018-11-29T07:14:24.152Z,25.93
2018-11-29T07:16:53.010Z,24.87
2018-11-29T07:19:22.598Z,25.47
2018-11-29T07:21:51.448Z,25.83
2018-11-29T07:24:20.290Z,27.48
2018-11-29T07:26:49.128Z,25.43
2018-11-29T07:29:17.974Z,23.73
2018-11-29T07:31:46.822Z,25.73
2018-11-29T07:34:15.658Z,24.03
2018-11-29T07:36:45.249Z,24.93
2018-11-29T07:39:14.090Z,26.00
2018-11-29T07:41:42.935Z,24.87
2018-11-29T07:44:12.527Z,24.20
2018-11-29T07:46:41.368Z,27.35
2018-11-29T07:49:10.193Z,26.17
2018-11-29T07:51:39.020Z,25.70
2018-11-29T07:54:07.977Z,24.43
2018-11-29T07:56:36.828Z,25.30
2018-11-29T07:59:05.664Z,25.63
2018-11-29T08:01:34.513Z,25.53
2018-11-29T08:04:03.366Z,24.77
2018-11-29T08:06:32.953Z,24.23
2018-11-29T08:09:01.799Z,25.00
2018-11-29T08:11:30.647Z,24.53
2018-11-29T08:14:00.233Z,25.37
2018-11-29T08:16:29.087Z,22.57
2018-11-29T08:18:57.937Z,24.30
2018-11-29T08:21:26.792Z,23.07
2018-11-29T08:23:55.637Z,23.70
2018-11-29T08:26:24.473Z,24.67
2018-11-29T08:28:53.326Z,24.53
2018-11-29T08:31:22.169Z,25.77
2018-11-29T08:33:51.759Z,22.77
2018-11-29T08:36:20.600Z,25.15
2018-11-29T08:38:49.451Z,22.97
2018-11-29T08:41:19.036Z,21.57
2018-11-29T08:43:47.900Z,21.37
2018-11-29T08:46:16.735Z,22.57
2018-11-29T08:48:45.590Z,20.87
2018-11-29T08:51:14.432Z,21.90
2018-11-29T08:53:43.279Z,21.87
2018-11-29T08:56:12.123Z,21.13
2018-11-29T08:58:41.011Z,21.37
2018-11-29T09:01:09.798Z,22.03
2018-11-29T09:03:38.645Z,21.33
2018-11-29T09:06:07.492Z,19.40
2018-11-29T09:08:36.342Z,24.15
2018-11-29T09:11:05.921Z,21.43
2018-11-29T09:13:35.361Z,21.73
2018-11-29T09:16:04.233Z,22.27
2018-11-29T09:18:33.815Z,21.37
2018-11-29T09:21:02.724Z,23.75
2018-11-29T09:23:31.500Z,23.03
2018-11-29T09:26:00.424Z,20.70
2018-11-29T09:28:29.234Z,20.77
2018-11-29T09:30:58.086Z,21.83
2018-11-29T09:33:26.983Z,20.80
2018-11-29T09:35:56.575Z,23.53
2018-11-29T09:38:25.413Z,21.37
2018-11-29T09:40:54.264Z,20.90
2018-11-29T09:43:23.120Z,20.87
2018-11-29T09:45:51.976Z,22.20
2018-11-29T09:48:20.822Z,20.98
2018-11-29T09:50:50.415Z,18.57
2018-11-29T09:53:19.267Z,19.47
2018-11-29T09:55:48.124Z,19.80
2018-11-29T09:58:16.973Z,18.93
2018-11-29T10:00:45.809Z,18.60
2018-11-29T10:03:15.400Z,18.40
2018-11-29T10:05:44.241Z,18.77
2018-11-29T10:08:13.082Z,20.10
2018-11-29T10:10:41.955Z,19.20
2018-11-29T10:13:11.391Z,20.10
2018-11-29T10:15:40.234Z,18.23
2018-11-29T10:18:09.069Z,17.70
2018-11-29T10:20:37.927Z,19.33
2018-11-29T10:23:06.762Z,18.17
2018-11-29T10:25:36.549Z,17.60
2018-11-29T10:28:05.196Z,18.53
2018-11-29T10:30:34.054Z,18.40
2018-11-29T10:33:02.890Z,17.40
2018-11-29T10:35:31.722Z,17.70
2018-11-29T10:38:00.579Z,17.30
2018-11-29T10:40:30.172Z,17.80
2018-11-29T10:42:59.129Z,17.43
2018-11-29T10:45:27.978Z,17.40
2018-11-29T10:47:57.574Z,18.17
2018-11-29T10:50:27.166Z,20.23
2018-11-29T10:52:56.003Z,20.17
2018-11-29T10:55:24.847Z,18.30
2018-11-29T10:57:53.724Z,17.70
2018-11-29T11:00:22.580Z,19.23
2018-11-29T11:02:51.426Z,17.67
2018-11-29T11:05:21.059Z,18.20
2018-11-29T11:07:50.627Z,19.03
2018-11-29T11:10:19.461Z,18.27
2018-11-29T11:12:48.322Z,14.17
2018-11-29T11:15:17.904Z,18.77
2018-11-29T11:17:46.756Z,18.43
2018-11-29T11:20:15.608Z,18.33
2018-11-29T11:22:45.204Z,18.60
2018-11-29T11:25:14.074Z,19.73
2018-11-29T11:27:42.907Z,19.30
2018-11-29T11:30:11.746Z,17.53
2018-11-29T11:32:40.585Z,18.10
2018-11-29T11:35:09.434Z,19.33
2018-11-29T11:37:38.324Z,18.60
2018-11-29T11:40:07.128Z,18.10
2018-11-29T11:42:36.008Z,18.90
2018-11-29T11:45:04.813Z,18.50
2018-11-29T11:47:33.667Z,17.63
2018-11-29T11:50:02.500Z,19.10
2018-11-29T11:52:33.551Z,17.97
2018-11-29T11:55:01.710Z,17.50
2018-11-29T11:57:31.335Z,16.70
2018-11-29T12:00:00.168Z,17.80
2018-11-29T12:02:28.997Z,18.90
2018-11-29T12:04:58.617Z,17.77
2018-11-29T12:07:27.477Z,17.10
2018-11-29T12:09:56.357Z,17.97
2018-11-29T12:12:25.206Z,18.67
2018-11-29T12:14:54.050Z,18.67
2018-11-29T12:17:23.023Z,19.50
2018-11-29T12:19:51.883Z,18.93
2018-11-29T12:22:20.697Z,16.87
2018-11-29T12:24:49.532Z,19.63
2018-11-29T12:27:18.378Z,17.13
2018-11-29T12:29:47.227Z,18.17
2018-11-29T12:32:16.081Z,17.93
2018-11-29T12:34:45.673Z,17.43
2018-11-29T12:37:14.516Z,18.65
2018-11-29T12:39:43.369Z,17.63
2018-11-29T12:42:12.968Z,18.27
2018-11-29T12:44:41.821Z,17.83
2018-11-29T12:47:10.661Z,19.00
2018-11-29T12:49:40.894Z,19.37
2018-11-29T12:52:09.847Z,18.37
2018-11-29T12:54:38.713Z,19.47
2018-11-29T12:57:07.554Z,18.97
2018-11-29T12:59:37.162Z,21.40
2018-11-29T13:02:06.005Z,20.50
2018-11-29T13:04:34.845Z,19.37
2018-11-29T13:07:03.691Z,18.53
2018-11-29T13:09:32.552Z,17.97
2018-11-29T13:12:01.409Z,19.93
2018-11-29T13:14:30.268Z,20.93
2018-11-29T13:16:59.126Z,19.73
2018-11-29T13:19:27.971Z,19.67
2018-11-29T13:21:56.813Z,18.73
2018-11-29T13:24:25.660Z,17.70
2018-11-29T13:26:54.518Z,18.97
2018-11-29T13:29:24.104Z,17.70
2018-11-29T13:31:52.966Z,17.73
2018-11-29T13:34:21.805Z,17.57
2018-11-29T13:36:50.672Z,17.20
2018-11-29T13:39:19.520Z,22.27
2018-11-29T13:41:48.354Z,21.40
2018-11-29T13:44:17.205Z,19.33
2018-11-29T13:46:46.055Z,17.73
2018-11-29T13:49:15.645Z,17.70
2018-11-29T13:51:44.479Z,17.00
2018-11-29T13:54:13.324Z,16.60
2018-11-29T13:56:42.192Z,17.60
2018-11-29T13:59:11.034Z,19.13
2018-11-29T14:01:39.880Z,15.60
2018-11-29T14:04:08.725Z,15.57
2018-11-29T14:06:37.567Z,16.27
2018-11-29T14:09:06.409Z,14.63
2018-11-29T14:11:35.250Z,16.90
2018-11-29T14:14:04.106Z,23.17
2018-11-29T14:16:32.982Z,20.57
2018-11-29T14:19:02.563Z,16.10
2018-11-29T14:21:32.143Z,14.87
2018-11-29T14:24:00.998Z,16.43
2018-11-29T14:26:29.845Z,15.30
2018-11-29T14:28:59.477Z,14.60
2018-11-29T14:31:28.298Z,16.00
2018-11-29T14:33:57.146Z,16.70
2018-11-29T14:36:25.997Z,28.90
2018-11-29T14:38:55.612Z,19.93
2018-11-29T14:41:25.217Z,15.57
2018-11-29T14:43:54.026Z,17.08
2018-11-29T14:46:22.874Z,17.30
2018-11-29T14:48:51.723Z,15.13
2018-11-29T14:51:20.590Z,16.17
2018-11-29T14:53:49.446Z,18.07
2018-11-29T14:56:18.276Z,17.63
2018-11-29T14:58:47.124Z,19.07
2018-11-29T15:01:15.986Z,19.20
2018-11-29T15:03:44.858Z,16.70
2018-11-29T15:06:13.710Z,37.92
2018-11-29T15:08:42.598Z,19.52
2018-11-29T15:11:12.219Z,17.77
2018-11-29T15:13:41.058Z,15.27
2018-11-29T15:16:09.900Z,18.73
2018-11-29T15:18:38.754Z,20.73
2018-11-29T15:21:07.589Z,16.43
2018-11-29T15:23:36.451Z,15.63
2018-11-29T15:26:06.019Z,15.50
2018-11-29T15:28:34.864Z,16.50
2018-11-29T15:31:03.718Z,15.03
2018-11-29T15:33:32.565Z,15.20
2018-11-29T15:36:01.410Z,15.23
2018-11-29T15:38:30.260Z,18.43
2018-11-29T15:40:59.099Z,16.97
2018-11-29T15:43:27.969Z,15.87
2018-11-29T15:45:56.821Z,16.30
2018-11-29T15:48:25.681Z,17.90
2018-11-29T15:50:54.512Z,16.93
2018-11-29T15:53:23.358Z,16.97
2018-11-29T15:55:52.210Z,16.20
2018-11-29T15:58:21.061Z,15.60
2018-11-29T16:00:49.902Z,16.07
2018-11-29T16:03:18.761Z,14.17
2018-11-29T16:05:47.615Z,15.43
2018-11-29T16:08:16.459Z,14.63
2018-11-29T16:10:46.069Z,14.00
2018-11-29T16:13:14.884Z,17.02
2018-11-29T16:15:43.737Z,16.87
2018-11-29T16:18:12.595Z,18.73
2018-11-29T16:20:41.450Z,16.80
2018-11-29T16:23:10.302Z,15.47
2018-11-29T16:25:39.172Z,18.33
2018-11-29T16:28:08.024Z,16.17
2018-11-29T16:30:36.883Z,16.87
2018-11-29T16:33:05.753Z,18.83
2018-11-29T16:35:34.597Z,17.55
2018-11-29T16:38:03.426Z,15.67
2018-11-29T16:40:32.269Z,15.17
2018-11-29T16:43:01.128Z,15.83
2018-11-29T16:45:29.991Z,15.00
2018-11-29T16:47:58.858Z,18.03
2018-11-29T16:50:27.714Z,16.05
2018-11-29T16:52:56.555Z,14.87
2018-11-29T16:55:25.419Z,15.43
2018-11-29T16:57:54.259Z,15.07
2018-11-29T17:00:23.699Z,16.73
2018-11-29T17:02:52.539Z,16.10
2018-11-29T17:05:21.386Z,17.57
2018-11-29T17:07:50.229Z,16.67
2018-11-29T17:10:19.086Z,17.23
2018-11-29T17:12:47.946Z,17.30
2018-11-29T17:15:16.780Z,18.05
2018-11-29T17:17:45.625Z,17.58
2018-11-29T17:20:14.473Z,16.30
2018-11-29T17:22:43.330Z,16.87
2018-11-29T17:25:12.160Z,16.37
2018-11-29T17:27:41.760Z,15.60
2018-11-29T17:30:10.618Z,16.63
2018-11-29T17:32:39.464Z,16.70
2018-11-29T17:35:08.312Z,12.23
2018-11-29T17:37:37.912Z,15.20
2018-11-29T17:40:06.799Z,18.05
2018-11-29T17:42:35.615Z,17.00
2018-11-29T17:45:05.245Z,15.03
2018-11-29T17:47:34.806Z,17.45
2018-11-29T17:50:03.663Z,17.30
2018-11-29T17:52:32.507Z,15.23
2018-11-29T17:55:01.360Z,17.80
2018-11-29T17:57:30.196Z,17.00
2018-11-29T17:59:59.815Z,18.20
2018-11-29T18:02:28.657Z,20.00
2018-11-29T18:04:57.573Z,18.23
2018-11-29T18:07:27.159Z,17.10
2018-11-29T18:09:56.062Z,18.08
2018-11-29T18:12:24.871Z,28.23
2018-11-29T18:14:53.723Z,39.83
2018-11-29T18:17:23.318Z,31.70
2018-11-29T18:19:52.195Z,23.50
2018-11-29T18:22:21.036Z,21.87
2018-11-29T18:24:49.891Z,17.07
2018-11-29T18:27:18.760Z,16.13
2018-11-29T18:29:47.598Z,17.83
2018-11-29T18:32:17.190Z,18.70
2018-11-29T18:34:46.058Z,17.77
2018-11-29T18:37:14.912Z,15.50
2018-11-29T18:39:43.750Z,15.97
2018-11-29T18:42:12.606Z,15.97
2018-11-29T18:44:41.444Z,15.30
2018-11-29T18:47:10.284Z,16.47
2018-11-29T18:49:39.139Z,15.10
2018-11-29T18:52:08.734Z,17.13
2018-11-29T18:54:38.324Z,18.27
2018-11-29T18:57:07.213Z,16.97
2018-11-29T18:59:36.045Z,18.12
2018-11-29T19:02:05.627Z,16.43
2018-11-29T19:04:35.218Z,16.63
2018-11-29T19:07:04.086Z,17.50
2018-11-29T19:09:32.926Z,20.10
2018-11-29T19:12:01.772Z,21.67
2018-11-29T19:14:30.611Z,28.57
2018-11-29T19:16:59.481Z,19.03
2018-11-29T19:19:29.126Z,18.80
2018-11-29T19:21:57.922Z,18.17
2018-11-29T19:24:26.812Z,17.23
2018-11-29T19:26:55.656Z,13.80
2018-11-29T19:29:25.247Z,18.27
2018-11-29T19:31:54.745Z,18.37
2018-11-29T19:34:23.640Z,19.48
2018-11-29T19:36:53.149Z,22.50
2018-11-29T19:39:22.734Z,38.47
2018-11-29T19:41:51.582Z,25.57
2018-11-29T19:44:20.426Z,19.43
2018-11-29T19:46:49.262Z,17.23
2018-11-29T19:49:18.113Z,17.87
2018-11-29T19:51:46.984Z,18.63
2018-11-29T19:54:16.851Z,19.62
2018-11-29T19:56:44.666Z,23.97
2018-11-29T19:59:13.540Z,29.87
2018-11-29T20:01:42.398Z,23.53
2018-11-29T20:04:11.235Z,22.67
2018-11-29T20:06:40.074Z,23.77
2018-11-29T20:09:08.971Z,23.33
2018-11-29T20:11:37.808Z,23.13
2018-11-29T20:14:06.695Z,21.83
2018-11-29T20:16:35.549Z,20.90
2018-11-29T20:19:04.372Z,17.47
2018-11-29T20:21:33.242Z,17.60
2018-11-29T20:24:02.111Z,18.00
2018-11-29T20:26:31.731Z,20.20
2018-11-29T20:28:59.782Z,22.35
2018-11-29T20:31:28.634Z,20.90
2018-11-29T20:33:57.482Z,24.07
2018-11-29T20:36:26.340Z,22.10
2018-11-29T20:38:55.234Z,24.17
2018-11-29T20:41:24.075Z,26.53
2018-11-29T20:43:52.938Z,25.80
2018-11-29T20:46:21.884Z,23.97
2018-11-29T20:48:50.718Z,22.40
2018-11-29T20:51:19.538Z,25.27
2018-11-29T20:53:48.413Z,27.03
2018-11-29T20:56:17.320Z,24.30
2018-11-29T20:58:46.174Z,21.13
2018-11-29T21:01:15.041Z,21.23
2018-11-29T21:03:43.943Z,31.70
2018-11-29T21:06:13.662Z,28.43
2018-11-29T21:08:42.415Z,25.60
2018-11-29T21:11:11.261Z,24.13
2018-11-29T21:13:40.102Z,25.27
2018-11-29T21:16:08.967Z,24.13
2018-11-29T21:18:38.556Z,21.97
2018-11-29T21:21:07.454Z,24.02
2018-11-29T21:23:36.274Z,22.67
2018-11-29T21:26:05.122Z,20.17
2018-11-29T21:28:33.996Z,20.90
2018-11-29T21:31:02.813Z,19.33
2018-11-29T21:33:31.701Z,20.13
2018-11-29T21:36:00.507Z,19.87
2018-11-29T21:38:29.361Z,18.67
2018-11-29T21:40:58.214Z,18.97
2018-11-29T21:43:27.078Z,19.03
2018-11-29T21:45:56.672Z,19.23
2018-11-29T21:48:25.525Z,20.17
2018-11-29T21:50:54.363Z,20.48
2018-11-29T21:53:23.946Z,19.67
2018-11-29T21:55:53.724Z,21.37
2018-11-29T21:58:22.806Z,20.60
2018-11-29T22:00:51.819Z,19.53
2018-11-29T22:03:20.889Z,19.77
2018-11-29T22:05:50.534Z,19.53
2018-11-29T22:08:19.618Z,20.33
2018-11-29T22:10:48.701Z,20.33
2018-11-29T22:13:17.807Z,18.37
2018-11-29T22:15:46.909Z,20.10
2018-11-29T22:18:15.970Z,19.40
2018-11-29T22:20:45.064Z,19.70
2018-11-29T22:23:14.063Z,20.80
2018-11-29T22:25:43.151Z,20.37
2018-11-29T22:28:12.236Z,18.87
2018-11-29T22:30:41.437Z,19.73
2018-11-29T22:33:10.335Z,19.23
2018-11-29T22:35:39.434Z,19.50
2018-11-29T22:38:08.441Z,19.13
2018-11-29T22:40:37.294Z,20.17
2018-11-29T22:43:06.138Z,19.63
2018-11-29T22:45:34.991Z,20.30
2018-11-29T22:48:03.842Z,20.03
2018-11-29T22:50:32.740Z,19.00
2018-11-29T22:53:02.284Z,21.05
2018-11-29T22:55:31.128Z,20.87
2018-11-29T22:58:00.709Z,20.03
2018-11-29T23:00:29.555Z,17.97
2018-11-29T23:02:58.390Z,18.83
2018-11-29T23:05:27.235Z,19.23
2018-11-29T23:07:56.084Z,20.07
2018-11-29T23:10:24.938Z,19.17
2018-11-29T23:12:53.851Z,19.00
2018-11-29T23:15:22.666Z,20.03
2018-11-29T23:17:51.526Z,20.13
2018-11-29T23:20:20.373Z,21.67
2018-11-29T23:22:49.228Z,20.07
2018-11-29T23:25:18.064Z,19.47
2018-11-29T23:27:46.909Z,18.50
2018-11-29T23:30:16.503Z,19.13
2018-11-29T23:32:46.085Z,18.80
2018-11-29T23:35:14.945Z,21.15
2018-11-29T23:37:43.827Z,19.83
2018-11-29T23:40:13.421Z,22.07
2018-11-29T23:42:42.259Z,20.00
2018-11-29T23:45:11.121Z,20.27
2018-11-29T23:47:39.947Z,21.08
2018-11-29T23:50:08.792Z,19.23
2018-11-29T23:52:37.629Z,20.70
2018-11-29T23:55:06.454Z,22.50
2018-11-29T23:57:36.045Z,19.00
